Weather observations for the past three days for
San Carlos Airport
Imperial (Metric)
Date Time (pdt) Wind (mph) Vis. (mi.) Weather Sky Cond. Temperature (ºF) Relative Humidity Wind Chill (°F) Heat Index (°F) Pressure Precipitation (in)
Air Dwpt 6 hour altimeter (in) sea level (mb) 1 hr 3 hr 6 hr
Max. Min.
08 06:55 Calm 7.00 Mostly Cloudy BKN016 55.4 50 82% 30.11 0.0
08 06:47 W 5 7.00 Overcast OVC019 53.6 48.2 82% 30.11 0.0
08 06:35 Calm 8.00 Overcast OVC016 53.6 50 88% 30.1 0.0
08 06:15 W 7 8.00 Overcast OVC015 55.4 50 82% 30.1 0.0
08 05:55 Calm 9.00 Overcast OVC015 55.4 50 82% 30.1 0.0
08 05:35 W 6 9.00 Overcast OVC015 55.4 50 82% 30.1 0.0
08 05:15 Calm 9.00 Overcast OVC014 55.4 50 82% 30.1 0.0
08 04:55 Calm 9.00 Overcast OVC015 55.4 50 82% 30.1 0.0
08 04:35 W 7 10.00 Overcast OVC015 55.4 50 82% 30.1 0.0
08 04:15 Calm 9.00 Overcast OVC015 55.4 50 82% 30.1 0.0
08 03:55 Calm 9.00 Overcast OVC015 53.6 50 88% 30.1 0.0
08 03:35 W 3 9.00 Overcast OVC015 53.6 50 88% 30.1 0.0
08 03:15 Calm 8.00 Mostly Cloudy BKN018 53.6 50 88% 30.09 0.0
08 02:55 W 8 9.00 A Few Clouds FEW017 53.6 50 88% 30.09 0.0
08 02:35 Calm 8.00 Mostly Cloudy BKN016 53.6 50 88% 30.09 0.0
08 02:15 W 8 9.00 Overcast OVC016 53.6 50 88% 30.09 0.0
08 01:55 W 6 9.00 Overcast OVC016 53.6 50 88% 30.09 0.0
08 01:35 NW 6 9.00 Mostly Cloudy BKN017 53.6 50 88% 30.09 0.0
08 01:15 NW 9 9.00 A Few Clouds FEW013 53.6 50 88% 30.09 0.0
08 00:55 NW 5 9.00 Partly Cloudy SCT013 SCT019 53.6 50 88% 30.1 0.0
08 00:35 W 7 8.00 A Few Clouds FEW014 FEW020 53.6 51.8 94% 30.09 0.0
08 00:15 W 9 8.00 NULL NULL 53.6 51.8 94% 30.09 0.0
07 23:55 Calm 8.00 Fair CLR 53.6 51.8 94% 30.09 0.0
07 23:35 NW 6 G 13 9.00 A Few Clouds FEW019 53.6 51.8 94% 30.09 0.0
07 23:15 NW 8 9.00 Partly Cloudy SCT019 53.6 51.8 94% 30.09 0.0
07 22:55 NW 9 9.00 A Few Clouds FEW018 53.6 51.8 94% 30.09 0.0
07 22:35 NW 10 9.00 Partly Cloudy SCT018 53.6 51.8 94% 30.08 0.0
07 22:15 NW 9 9.00 Fair CLR 55.4 51.8 88% 30.08 0.0
07 21:55 NW 10 G 17 9.00 Fair CLR 55.4 51.8 88% 30.08 0.0
07 21:35 NW 13 9.00 NULL NULL 55.4 51.8 88% 30.07 0.0
07 21:15 NW 13 9.00 NULL NULL 0 0 0% 30.07 0.0
07 20:53 W 14 10.00 Clear SKC 55.4 51.8 88% 30.06 0.0
07 18:59 W 15 10.00 Clear SKC 60.8 51.8 72% 30.03 0.0
07 17:47 W 16 10.00 Clear SKC 64.4 50 60% 30.03 0.0
07 15:47 N 10 G 20 10.00 Clear SKC 64.4 55.4 73% 30.05 0.0
07 14:47 N 9 10.00 Clear SKC 64.4 55.4 73% 30.07 0.0
07 13:47 N 13 10.00 Clear SKC 62.6 55.4 77% 30.09 0.0
07 12:47 N 10 10.00 Clear SKC 62.6 55.4 77% 30.1 0.0
07 11:45 N 9 10.00 A Few Clouds FEW019 62.6 53.6 73% 30.12 0.0
07 10:50 Vrbl 3 8.00 Overcast OVC014 59 53.6 82% 30.13 0.0
07 09:50 NE 5 7.00 Overcast OVC013 57.2 51.8 82% 30.13 0.0
07 07:47 NW 6 6.00 Fog/Mist OVC009 55.4 51.8 88% 30.12 0.0
07 06:55 NW 8 7.00 Overcast OVC008 55.4 51.8 88% 30.11 0.0
07 06:47 NW 9 5.00 Overcast OVC008 53.6 50 88% 30.11 0.0
07 06:35 NW 9 7.00 Overcast OVC008 55.4 51.8 88% 30.11 0.0
07 06:15 NW 8 9.00 Overcast OVC009 55.4 51.8 88% 30.1 0.0
07 05:55 NW 9 8.00 Overcast OVC009 55.4 51.8 88% 30.1 0.0
07 05:35 NW 8 9.00 Overcast OVC009 55.4 51.8 88% 30.09 0.0
07 05:15 NW 8 9.00 Overcast OVC010 55.4 51.8 88% 30.1 0.0
07 04:55 NW 8 9.00 Overcast OVC010 55.4 51.8 88% 30.1 0.0
07 04:35 NW 8 9.00 Overcast OVC010 55.4 51.8 88% 30.1 0.0
07 04:15 NW 7 9.00 Overcast OVC010 55.4 51.8 88% 30.1 0.0
07 03:55 NW 7 9.00 Overcast OVC010 55.4 51.8 88% 30.1 0.0
07 03:35 NW 9 9.00 Overcast OVC011 55.4 51.8 88% 30.1 0.0
07 03:15 NW 7 9.00 Overcast OVC011 55.4 53.6 94% 30.1 0.0
07 02:55 Calm 9.00 Overcast OVC012 55.4 53.6 94% 30.1 0.0
07 02:35 Calm 9.00 Overcast OVC011 55.4 53.6 94% 30.1 0.0
07 02:15 Calm 9.00 Overcast OVC012 55.4 53.6 94% 30.11 0.0
07 01:35 NW 10 9.00 Overcast OVC012 55.4 53.6 94% 30.11 0.0
07 01:15 NW 9 10.00 Overcast OVC012 55.4 53.6 94% 30.12 0.0
07 00:55 W 8 9.00 Overcast OVC012 57.2 53.6 88% 30.12 0.0
07 00:35 W 8 9.00 Overcast OVC012 57.2 53.6 88% 30.11 0.0
07 00:15 NW 6 9.00 Overcast OVC012 57.2 53.6 88% 30.12 0.0
06 23:55 NW 7 9.00 Overcast OVC013 57.2 53.6 88% 30.12 0.0
06 23:35 Calm 9.00 Mostly Cloudy BKN014 57.2 53.6 88% 30.12 0.0
06 23:15 Calm 9.00 Fair CLR 57.2 53.6 88% 30.12 0.0
06 22:55 NW 8 9.00 Fair CLR 57.2 53.6 88% 30.11 0.0
06 22:35 NW 8 9.00 Fair CLR 57.2 53.6 88% 30.11 0.0
06 22:15 NW 10 9.00 Fair CLR 57.2 53.6 88% 30.11 0.0
06 21:55 NW 13 9.00 Fair CLR 57.2 53.6 88% 30.11 0.0
06 21:35 NW 9 9.00 Fair CLR 59 53.6 82% 30.11 0.0
06 21:15 N 5 G 12 10.00 Fair CLR 57.2 53.6 88% 30.11 0.0
06 20:50 W 7 10.00 Clear SKC 60.8 51.8 72% 30.08 0.0
06 19:50 NW 13 10.00 Clear SKC 60.8 51.8 72% 30.08 0.0
06 18:50 W 13 10.00 Clear SKC 64.4 53.6 68% 30.08 0.0
06 17:50 W 14 10.00 Clear SKC 69.8 53.6 57% 30.07 0.0
06 16:50 NW 10 10.00 Clear SKC 71.6 53.6 53% 30.07 0.0
06 15:50 NW 13 10.00 Clear SKC 71.6 53.6 53% 30.08 0.0
06 13:50 N 7 10.00 Clear SKC 69.8 53.6 57% 30.12 0.0
06 12:50 NW 6 10.00 Clear SKC 68 53.6 60% 30.13 0.0
06 11:47 N 8 10.00 Clear SKC 64.4 53.6 68% 30.15 0.0
06 10:47 N 6 10.00 Partly Cloudy SCT023 64.4 51.8 64% 30.16 0.0
06 08:47 NW 6 10.00 Overcast OVC022 59 50 72% 30.16 0.0
06 07:47 NW 8 10.00 Overcast OVC022 57.2 51.8 82% 30.15 0.0
06 06:55 Calm 9.00 Overcast OVC021 57.2 51.8 82% 30.14 0.0
06 06:47 NW 8 10.00 Overcast OVC022 57.2 51.8 82% 30.14 0.0
06 06:35 Calm 9.00 Overcast OVC022 57.2 51.8 82% 30.13 0.0
06 06:15 NW 6 9.00 Overcast OVC022 57.2 51.8 82% 30.12 0.0
06 05:55 Calm 10.00 Overcast OVC022 57.2 51.8 82% 30.12 0.0
06 05:35 Calm 10.00 Overcast OVC024 57.2 51.8 82% 30.12 0.0
06 05:15 Calm 9.00 Partly Cloudy SCT024 55.4 51.8 88% 30.12 0.0
06 04:55 Calm 10.00 Fair CLR 55.4 51.8 88% 30.12 0.0
06 04:35 Calm 9.00 A Few Clouds FEW026 55.4 51.8 88% 30.11 0.0
06 04:15 Calm 10.00 Partly Cloudy SCT026 55.4 51.8 88% 30.11 0.0
06 03:55 Calm 9.00 Fair CLR 57.2 51.8 82% 30.1 0.0
06 03:35 Calm 10.00 A Few Clouds FEW020 57.2 51.8 82% 30.1 0.0
06 03:15 Calm 10.00 Partly Cloudy SCT020 57.2 51.8 82% 30.1 0.0
06 02:55 Calm 10.00 Partly Cloudy SCT021 57.2 51.8 82% 30.1 0.0
06 02:35 Calm 9.00 Partly Cloudy FEW018 FEW023 SCT035 57.2 51.8 82% 30.1 0.0
06 02:15 Calm 10.00 Overcast OVC035 57.2 51.8 82% 30.1 0.0
06 01:55 Calm 9.00 Overcast OVC035 59 53.6 82% 30.1 0.0
06 01:35 NW 6 10.00 Overcast OVC035 59 53.6 82% 30.1 0.0
06 01:15 Calm 10.00 Overcast OVC035 59 53.6 82% 30.1 0.0
06 00:55 Calm 10.00 Overcast OVC035 59 53.6 82% 30.1 0.0
06 00:35 NW 5 9.00 Overcast OVC035 59 53.6 82% 30.09 0.0
06 00:15 NW 7 10.00 Overcast OVC035 59 53.6 82% 30.09 0.0
05 23:55 NW 5 10.00 Overcast OVC035 59 53.6 82% 30.09 0.0
05 23:35 N 5 10.00 Overcast OVC035 57.2 53.6 88% 30.08 0.0
05 23:15 Calm 10.00 Overcast OVC036 57.2 53.6 88% 30.08 0.0
05 22:55 Calm 10.00 Overcast OVC037 59 51.8 77% 30.08 0.0
05 22:35 Calm 10.00 Overcast OVC037 59 51.8 77% 30.07 0.0
05 22:15 Calm 10.00 Overcast OVC037 59 53.6 82% 30.07 0.0
05 21:55 Vrbl 5 10.00 Overcast OVC037 59 51.8 77% 30.06 0.0
05 21:35 NW 6 10.00 Overcast OVC038 59 51.8 77% 30.06 0.0
05 21:15 NW 5 10.00 Overcast OVC039 59 51.8 77% 30.05 0.0
05 20:47 W 7 10.00 Overcast OVC039 59 50 72% 30.05 0.0
05 19:47 W 13 10.00 Overcast OVC035 60.8 50 68% 30.02 0.0
05 17:47 W 13 10.00 Overcast OVC039 62.6 50 64% 30.01 0.0
05 16:47 SW 15 10.00 Overcast OVC032 62.6 50 64% 30 0.0
05 14:47 SW 9 10.00 Overcast OVC030 64.4 50 60% 30.02 0.0
05 13:47 SW 9 10.00 Overcast OVC030 62.6 50 64% 30.02 0.0
05 12:50 W 9 10.00 Overcast OVC029 62.6 46.4 56% 30.02 0.0
05 11:47 NW 8 10.00 Mostly Cloudy SCT021 BKN027 62.6 50 64% 30.02 0.0
05 10:47 W 10 9.00 Overcast BKN021 OVC026 57.2 51.8 82% 30.02 0.0
05 09:47 W 9 6.00 Overcast with Haze OVC020 55.4 51.8 88% 30.01 0.0
05 08:50 W 6 10.00 Overcast BKN030 OVC045 55.4 50 82% 30.01 0.0
Date Time (pdt) Wind (mph) Vis. (mi.) Weather Sky Cond. Air Dwpt Max. Min. Relative Humidity Wind Chill (°F) Heat Index (°F) altimeter (in) sea level (mb) 1 hr 3 hr 6 hr
6 hour
Temperature (ºF) Pressure Precipitation (in)